createdAt,value
2019-05-20T00:00:09.232Z,11.50
2019-05-20T00:02:43.027Z,11.43
2019-05-20T00:05:11.631Z,11.48
2019-05-20T00:07:40.132Z,11.41
2019-05-20T00:10:09.028Z,11.23
2019-05-20T00:12:37.456Z,11.19
2019-05-20T00:15:06.862Z,11.26
2019-05-20T00:17:35.304Z,11.13
2019-05-20T00:20:08.122Z,11.14
2019-05-20T00:22:36.571Z,11.06
2019-05-20T00:25:07.728Z,11.17
2019-05-20T00:27:36.252Z,11.15
2019-05-20T00:30:06.314Z,11.04
2019-05-20T00:32:41.231Z,11.02
2019-05-20T00:35:07.169Z,11.02
2019-05-20T00:37:35.653Z,10.93
2019-05-20T00:40:08.405Z,10.99
2019-05-20T00:42:36.862Z,10.94
2019-05-20T00:45:06.026Z,11.00
2019-05-20T00:47:34.565Z,10.92
2019-05-20T00:50:03.508Z,10.84
2019-05-20T00:52:32.039Z,10.85
2019-05-20T00:55:00.613Z,10.82
2019-05-20T00:57:29.078Z,10.80
2019-05-20T00:59:57.560Z,10.72
2019-05-20T01:02:26.015Z,10.74
2019-05-20T01:04:54.466Z,10.80
2019-05-20T01:07:22.890Z,10.73
2019-05-20T01:09:51.386Z,10.74
2019-05-20T01:12:19.879Z,10.71
2019-05-20T01:14:48.319Z,10.73
2019-05-20T01:17:16.744Z,10.79
2019-05-20T01:19:45.208Z,10.91
2019-05-20T01:22:13.631Z,10.82
2019-05-20T01:24:42.072Z,10.85
2019-05-20T01:27:10.577Z,10.87
2019-05-20T01:29:39.030Z,10.74
2019-05-20T01:32:07.454Z,10.77
2019-05-20T01:34:35.903Z,10.82
2019-05-20T01:37:04.439Z,10.73
2019-05-20T01:39:32.961Z,10.75
2019-05-20T01:42:01.669Z,10.80
2019-05-20T01:44:30.187Z,10.68
2019-05-20T01:46:58.705Z,10.80
2019-05-20T01:49:27.149Z,10.80
2019-05-20T01:51:55.558Z,10.76
2019-05-20T01:54:23.984Z,10.69
2019-05-20T01:56:52.580Z,10.62
2019-05-20T01:59:20.997Z,10.63
2019-05-20T02:01:49.446Z,10.60
2019-05-20T02:04:17.864Z,10.63
2019-05-20T02:06:46.354Z,10.55
2019-05-20T02:09:14.938Z,10.68
2019-05-20T02:11:43.409Z,10.58
2019-05-20T02:14:13.462Z,10.52
2019-05-20T02:16:41.925Z,10.51
2019-05-20T02:19:10.365Z,10.58
2019-05-20T02:21:38.794Z,10.67
2019-05-20T02:24:07.228Z,10.64
2019-05-20T02:26:35.648Z,10.71
2019-05-20T02:29:04.284Z,10.65
2019-05-20T02:31:32.802Z,10.52
2019-05-20T02:34:01.305Z,10.49
2019-05-20T02:36:29.764Z,10.45
2019-05-20T02:38:58.293Z,10.43
2019-05-20T02:41:27.423Z,10.43
2019-05-20T02:43:55.836Z,10.50
2019-05-20T02:46:24.383Z,10.51
2019-05-20T02:48:52.853Z,10.49
2019-05-20T02:51:22.923Z,10.46
2019-05-20T02:53:51.367Z,10.44
2019-05-20T02:56:19.802Z,10.69
2019-05-20T02:58:48.272Z,10.58
2019-05-20T03:01:16.701Z,10.52
2019-05-20T03:03:45.199Z,10.49
2019-05-20T03:06:13.654Z,10.45
2019-05-20T03:08:42.067Z,10.47
2019-05-20T03:11:10.514Z,10.50
2019-05-20T03:13:38.927Z,10.53
2019-05-20T03:16:07.763Z,10.63
2019-05-20T03:18:36.270Z,10.43
2019-05-20T03:21:04.789Z,10.51
2019-05-20T03:23:33.321Z,10.41
2019-05-20T03:26:01.774Z,10.44
2019-05-20T03:28:30.253Z,10.50
2019-05-20T03:30:58.704Z,10.54
2019-05-20T03:33:27.184Z,10.52
2019-05-20T03:35:55.627Z,10.43
2019-05-20T03:38:24.051Z,10.54
2019-05-20T03:40:52.480Z,10.47
2019-05-20T03:43:20.986Z,10.37
2019-05-20T03:45:49.503Z,10.49
2019-05-20T03:48:17.933Z,10.57
2019-05-20T03:50:46.456Z,10.49
2019-05-20T03:53:14.859Z,10.48
2019-05-20T03:55:44.357Z,10.44
2019-05-20T03:58:13.941Z,10.44
2019-05-20T04:00:47.117Z,10.55
2019-05-20T04:03:16.431Z,10.47
2019-05-20T04:05:45.584Z,10.51
2019-05-20T04:08:14.562Z,10.48
2019-05-20T04:10:43.219Z,10.53
2019-05-20T04:13:11.716Z,10.58
2019-05-20T04:15:40.368Z,10.63
2019-05-20T04:18:08.968Z,10.59
2019-05-20T04:20:37.472Z,10.62
2019-05-20T04:23:05.969Z,10.63
2019-05-20T04:25:34.609Z,10.67
2019-05-20T04:28:03.201Z,10.64
2019-05-20T04:30:31.689Z,10.67
2019-05-20T04:33:00.223Z,10.69
2019-05-20T04:35:28.822Z,10.69
2019-05-20T04:37:57.259Z,10.76
2019-05-20T04:40:25.771Z,10.77
2019-05-20T04:42:54.294Z,10.79
2019-05-20T04:45:22.758Z,10.81
2019-05-20T04:47:51.173Z,10.86
2019-05-20T04:50:19.774Z,10.86
2019-05-20T04:52:48.210Z,10.86
2019-05-20T04:55:16.796Z,10.85
2019-05-20T04:57:45.226Z,10.87
2019-05-20T05:00:15.098Z,10.89
2019-05-20T05:02:43.977Z,10.91
2019-05-20T05:05:12.673Z,10.91
2019-05-20T05:07:41.160Z,10.99
2019-05-20T05:10:10.386Z,11.04
2019-05-20T05:12:38.832Z,11.15
2019-05-20T05:15:12.307Z,11.07
2019-05-20T05:17:40.873Z,11.10
2019-05-20T05:20:17.516Z,11.14
2019-05-20T05:22:39.799Z,11.13
2019-05-20T05:25:08.359Z,11.00
2019-05-20T05:27:36.861Z,11.12
2019-05-20T05:30:07.230Z,11.30
2019-05-20T05:32:41.908Z,11.21
2019-05-20T05:35:15.401Z,11.16
2019-05-20T05:37:44.145Z,11.20
2019-05-20T05:40:13.313Z,11.20
2019-05-20T05:42:41.773Z,11.29
2019-05-20T05:45:11.750Z,11.23
2019-05-20T05:47:40.238Z,11.23
2019-05-20T05:50:09.446Z,11.16
2019-05-20T05:52:37.888Z,11.26
2019-05-20T05:55:06.575Z,11.21
2019-05-20T05:57:35.002Z,11.23
2019-05-20T06:00:05.496Z,11.23
2019-05-20T06:02:33.938Z,11.25
2019-05-20T06:05:02.352Z,11.31
2019-05-20T06:07:30.809Z,11.26
2019-05-20T06:09:59.333Z,11.37
2019-05-20T06:12:28.342Z,11.45
2019-05-20T06:14:56.796Z,11.43
2019-05-20T06:17:25.255Z,11.49
2019-05-20T06:19:53.679Z,11.57
2019-05-20T06:22:22.191Z,11.43
2019-05-20T06:24:51.043Z,11.42
2019-05-20T06:27:20.102Z,11.41
2019-05-20T06:29:48.607Z,11.41
2019-05-20T06:32:17.161Z,11.42
2019-05-20T06:34:45.705Z,11.42
2019-05-20T06:37:15.988Z,11.40
2019-05-20T06:39:44.534Z,11.24
2019-05-20T06:42:13.026Z,11.35
2019-05-20T06:44:52.405Z,11.31
2019-05-20T06:47:11.775Z,11.37
2019-05-20T06:49:40.528Z,11.33
2019-05-20T06:52:09.054Z,11.33
2019-05-20T06:54:37.555Z,11.40
2019-05-20T06:57:05.998Z,11.39
2019-05-20T06:59:34.708Z,11.30
2019-05-20T07:02:03.401Z,11.30
2019-05-20T07:04:31.932Z,11.24
2019-05-20T07:07:00.427Z,11.24
2019-05-20T07:09:28.869Z,11.21
2019-05-20T07:11:57.338Z,11.19
2019-05-20T07:14:25.800Z,11.28
2019-05-20T07:16:54.267Z,11.29
2019-05-20T07:19:22.703Z,11.28
2019-05-20T07:21:51.143Z,11.18
2019-05-20T07:24:19.687Z,11.18
2019-05-20T07:26:48.114Z,11.17
2019-05-20T07:29:16.611Z,11.17
2019-05-20T07:31:45.067Z,11.15
2019-05-20T07:34:13.485Z,11.16
2019-05-20T07:36:41.964Z,11.07
2019-05-20T07:39:10.380Z,11.15
2019-05-20T07:41:41.395Z,11.15
2019-05-20T07:44:09.011Z,11.17
2019-05-20T07:46:37.614Z,11.15
2019-05-20T07:49:06.531Z,11.16
2019-05-20T07:51:35.871Z,11.21
2019-05-20T07:54:04.472Z,11.19
2019-05-20T07:56:35.941Z,11.20
2019-05-20T07:59:07.395Z,11.10
2019-05-20T08:01:36.063Z,11.32
2019-05-20T08:04:04.672Z,11.36
2019-05-20T08:06:33.162Z,11.26
2019-05-20T08:09:01.679Z,11.56
2019-05-20T08:11:30.219Z,11.51
2019-05-20T08:13:58.747Z,11.57
2019-05-20T08:16:27.267Z,11.63
2019-05-20T08:18:55.725Z,11.71
2019-05-20T08:21:24.727Z,11.72
2019-05-20T08:23:53.208Z,11.61
2019-05-20T08:26:21.828Z,11.68
2019-05-20T08:28:50.403Z,11.81
2019-05-20T08:31:19.005Z,11.82
2019-05-20T08:33:47.559Z,11.87
2019-05-20T08:36:15.989Z,11.75
2019-05-20T08:38:44.484Z,11.77
2019-05-20T08:41:13.018Z,11.73
2019-05-20T08:43:41.457Z,11.66
2019-05-20T08:46:09.988Z,11.67
2019-05-20T08:48:38.536Z,11.73
2019-05-20T08:51:07.071Z,11.76
2019-05-20T08:53:35.505Z,11.76
2019-05-20T08:56:04.045Z,11.82
2019-05-20T08:58:32.531Z,11.85
2019-05-20T09:01:01.063Z,12.01
2019-05-20T09:03:30.440Z,11.94
2019-05-20T09:05:59.308Z,11.89
2019-05-20T09:08:27.820Z,11.91
2019-05-20T09:10:56.248Z,11.94
2019-05-20T09:13:24.793Z,12.02
2019-05-20T09:15:53.303Z,12.05
2019-05-20T09:18:21.807Z,12.09
2019-05-20T09:20:50.283Z,12.08
2019-05-20T09:23:19.022Z,12.01
2019-05-20T09:25:47.475Z,12.11
2019-05-20T09:28:15.914Z,12.14
2019-05-20T09:30:44.609Z,12.21
2019-05-20T09:33:13.201Z,12.25
2019-05-20T09:35:42.086Z,12.25
2019-05-20T09:38:19.988Z,12.45
2019-05-20T09:40:47.295Z,12.38
2019-05-20T09:43:16.111Z,12.45
2019-05-20T09:45:44.727Z,12.44
2019-05-20T09:48:13.730Z,12.65
2019-05-20T09:50:42.234Z,12.71
2019-05-20T09:53:10.758Z,12.63
2019-05-20T09:55:39.326Z,12.75
2019-05-20T09:58:08.609Z,12.52
2019-05-20T10:00:37.368Z,12.66
2019-05-20T10:03:07.001Z,12.74
2019-05-20T10:05:37.396Z,12.63
2019-05-20T10:08:06.633Z,12.66
2019-05-20T10:10:35.280Z,12.58
2019-05-20T10:13:03.894Z,12.57
2019-05-20T10:15:32.550Z,12.81
2019-05-20T10:18:01.041Z,13.11
2019-05-20T10:20:29.514Z,13.47
2019-05-20T10:22:57.960Z,13.86
2019-05-20T10:25:26.579Z,14.11
2019-05-20T10:27:57.463Z,14.19
2019-05-20T10:30:25.469Z,14.10
2019-05-20T10:32:53.929Z,14.18
2019-05-20T10:35:22.494Z,14.13
2019-05-20T10:37:51.013Z,14.35
2019-05-20T10:40:19.789Z,14.11
2019-05-20T10:42:48.240Z,14.19
2019-05-20T10:45:16.847Z,14.42
2019-05-20T10:47:45.405Z,14.29
2019-05-20T10:50:14.271Z,14.24
2019-05-20T10:52:42.749Z,14.40
2019-05-20T10:55:11.682Z,14.48
2019-05-20T10:57:40.225Z,14.43
2019-05-20T11:00:09.208Z,14.58
2019-05-20T11:02:37.686Z,14.57
2019-05-20T11:05:06.752Z,14.58
2019-05-20T11:07:35.250Z,14.54
2019-05-20T11:10:07.711Z,14.53
2019-05-20T11:12:36.245Z,14.47
2019-05-20T11:15:08.990Z,14.35
2019-05-20T11:17:37.558Z,14.42
2019-05-20T11:20:07.948Z,14.54
2019-05-20T11:22:36.417Z,14.28
2019-05-20T11:25:06.812Z,14.35
2019-05-20T11:27:35.231Z,14.38
2019-05-20T11:30:05.769Z,14.47
2019-05-20T11:32:34.356Z,14.59
2019-05-20T11:35:03.379Z,14.45
2019-05-20T11:37:31.887Z,14.35
2019-05-20T11:40:00.337Z,14.36
2019-05-20T11:42:28.827Z,14.39
2019-05-20T11:44:57.289Z,14.27
2019-05-20T11:47:25.762Z,14.26
2019-05-20T11:49:54.190Z,14.31
2019-05-20T11:52:22.792Z,14.13
2019-05-20T11:54:51.342Z,14.29
2019-05-20T11:57:19.779Z,14.25
2019-05-20T11:59:48.237Z,14.23
2019-05-20T12:02:16.691Z,13.94
2019-05-20T12:04:45.171Z,14.14
2019-05-20T12:07:13.597Z,14.34
2019-05-20T12:09:49.500Z,14.32
2019-05-20T12:12:12.249Z,14.22
2019-05-20T12:14:40.822Z,14.34
2019-05-20T12:17:09.282Z,14.55
2019-05-20T12:19:37.754Z,14.30
2019-05-20T12:22:06.193Z,14.38
2019-05-20T12:24:34.727Z,14.19
2019-05-20T12:27:03.175Z,14.49
2019-05-20T12:29:31.622Z,14.45
2019-05-20T12:32:03.431Z,14.02
2019-05-20T12:34:30.327Z,14.11
2019-05-20T12:36:58.759Z,14.30
2019-05-20T12:39:27.304Z,14.11
2019-05-20T12:41:55.877Z,14.26
2019-05-20T12:44:24.329Z,14.18
2019-05-20T12:46:52.830Z,14.22
2019-05-20T12:49:21.652Z,14.17
2019-05-20T12:51:50.139Z,14.01
2019-05-20T12:54:18.658Z,13.94
2019-05-20T12:56:47.177Z,13.93
2019-05-20T12:59:15.690Z,13.95
2019-05-20T13:01:44.318Z,13.92
2019-05-20T13:04:12.768Z,13.90
2019-05-20T13:06:41.216Z,13.87
2019-05-20T13:09:10.116Z,14.09
2019-05-20T13:11:38.576Z,14.07
2019-05-20T13:14:07.053Z,14.31
2019-05-20T13:16:35.498Z,14.26
2019-05-20T13:19:04.019Z,14.36
2019-05-20T13:21:32.497Z,14.49
2019-05-20T13:24:00.919Z,14.50
2019-05-20T13:26:29.491Z,14.45
2019-05-20T13:28:59.685Z,14.37
2019-05-20T13:31:28.154Z,14.34
2019-05-20T13:33:56.602Z,14.62
2019-05-20T13:36:25.110Z,14.54
2019-05-20T13:38:53.578Z,14.52
2019-05-20T13:41:22.010Z,14.75
2019-05-20T13:43:50.597Z,14.65
2019-05-20T13:46:19.057Z,14.58
2019-05-20T13:48:47.627Z,14.51
2019-05-20T13:51:16.190Z,14.72
2019-05-20T13:53:44.669Z,14.75
2019-05-20T13:56:13.247Z,14.59
2019-05-20T13:58:41.820Z,14.54
2019-05-20T14:01:10.343Z,14.44
2019-05-20T14:03:38.867Z,14.41
2019-05-20T14:06:07.506Z,14.28
2019-05-20T14:08:35.975Z,14.25
2019-05-20T14:11:05.105Z,14.36
2019-05-20T14:13:33.741Z,14.24
2019-05-20T14:16:02.176Z,14.11
2019-05-20T14:18:30.701Z,14.09
2019-05-20T14:20:59.133Z,14.17
2019-05-20T14:23:27.658Z,14.11
2019-05-20T14:25:56.099Z,14.26
2019-05-20T14:28:24.594Z,14.28
2019-05-20T14:30:53.049Z,14.42
2019-05-20T14:33:21.562Z,14.46
2019-05-20T14:35:50.033Z,14.50
2019-05-20T14:38:18.544Z,14.56
2019-05-20T14:40:47.063Z,14.49
2019-05-20T14:43:15.480Z,14.37
2019-05-20T14:45:45.250Z,14.30
2019-05-20T14:48:13.830Z,14.25
2019-05-20T14:50:42.256Z,14.23
2019-05-20T14:53:10.850Z,14.13
2019-05-20T14:55:42.671Z,14.29
2019-05-20T14:58:10.062Z,14.32
2019-05-20T15:00:38.593Z,14.12
2019-05-20T15:03:07.097Z,14.29
2019-05-20T15:05:35.773Z,14.27
2019-05-20T15:08:04.445Z,14.39
2019-05-20T15:10:33.341Z,14.31
2019-05-20T15:13:01.828Z,14.43
2019-05-20T15:15:30.921Z,14.44
2019-05-20T15:17:59.530Z,14.35
2019-05-20T15:20:27.983Z,14.34
2019-05-20T15:22:56.394Z,14.42
2019-05-20T15:25:24.984Z,14.36
2019-05-20T15:27:53.920Z,14.27
2019-05-20T15:30:22.525Z,14.33
2019-05-20T15:32:54.497Z,14.32
2019-05-20T15:35:21.215Z,14.08
2019-05-20T15:37:49.766Z,14.09
2019-05-20T15:40:18.331Z,14.13
2019-05-20T15:42:46.867Z,14.03
2019-05-20T15:45:15.689Z,14.08
2019-05-20T15:47:44.159Z,14.11
2019-05-20T15:50:13.404Z,14.20
2019-05-20T15:52:42.358Z,14.12
2019-05-20T15:55:11.487Z,14.17
2019-05-20T15:57:39.957Z,13.99
2019-05-20T16:00:10.469Z,14.13
2019-05-20T16:02:39.099Z,14.01
2019-05-20T16:05:08.416Z,14.02
2019-05-20T16:07:36.875Z,14.06
2019-05-20T16:10:06.853Z,13.97
2019-05-20T16:12:35.625Z,14.11
2019-05-20T16:15:06.599Z,14.12
2019-05-20T16:17:35.135Z,14.24
2019-05-20T16:20:07.112Z,14.26
2019-05-20T16:22:35.425Z,14.30
2019-05-20T16:25:05.193Z,14.40
2019-05-20T16:27:33.759Z,14.20
2019-05-20T16:30:06.742Z,14.39
2019-05-20T16:32:32.449Z,14.41
2019-05-20T16:35:01.454Z,14.33
2019-05-20T16:37:29.903Z,14.31
2019-05-20T16:39:58.385Z,14.24
2019-05-20T16:42:26.874Z,14.22
2019-05-20T16:44:55.455Z,14.13
2019-05-20T16:47:24.071Z,14.11
2019-05-20T16:49:52.611Z,14.06
2019-05-20T16:52:21.186Z,14.11
2019-05-20T16:54:49.719Z,14.15
2019-05-20T16:57:18.168Z,14.11
2019-05-20T16:59:46.699Z,14.11
2019-05-20T17:02:15.254Z,14.16
2019-05-20T17:04:43.858Z,14.08
2019-05-20T17:07:12.338Z,14.02
2019-05-20T17:09:40.854Z,14.11
2019-05-20T17:12:09.297Z,14.02
2019-05-20T17:14:37.743Z,14.02
2019-05-20T17:17:06.342Z,13.90
2019-05-20T17:19:34.821Z,14.06
2019-05-20T17:22:03.376Z,13.92
2019-05-20T17:24:31.811Z,14.05
2019-05-20T17:27:00.307Z,13.72
2019-05-20T17:29:28.805Z,13.56
2019-05-20T17:31:57.266Z,13.68
2019-05-20T17:34:25.696Z,13.69
2019-05-20T17:36:54.280Z,13.61
2019-05-20T17:39:22.917Z,13.73
2019-05-20T17:41:51.469Z,13.47
2019-05-20T17:44:20.022Z,13.57
2019-05-20T17:46:48.561Z,13.59
2019-05-20T17:49:17.271Z,13.47
2019-05-20T17:51:45.775Z,13.52
2019-05-20T17:54:14.667Z,13.34
2019-05-20T17:56:43.366Z,13.42
2019-05-20T17:59:11.790Z,13.48
2019-05-20T18:01:40.296Z,13.46
2019-05-20T18:04:08.881Z,13.47
2019-05-20T18:06:37.410Z,13.39
2019-05-20T18:09:07.687Z,13.45
2019-05-20T18:11:36.309Z,13.27
2019-05-20T18:14:05.471Z,13.02
2019-05-20T18:16:34.378Z,12.97
2019-05-20T18:19:02.892Z,12.95
2019-05-20T18:21:31.353Z,12.83
2019-05-20T18:23:59.933Z,12.67
2019-05-20T18:26:28.362Z,12.89
2019-05-20T18:28:56.828Z,12.89
2019-05-20T18:31:32.483Z,12.85
2019-05-20T18:33:55.538Z,12.70
2019-05-20T18:36:24.075Z,12.82
2019-05-20T18:38:52.508Z,12.74
2019-05-20T18:41:21.003Z,12.66
2019-05-20T18:43:49.461Z,12.52
2019-05-20T18:46:17.983Z,12.52
2019-05-20T18:48:46.436Z,12.43
2019-05-20T18:51:14.921Z,12.45
2019-05-20T18:53:43.382Z,12.37
2019-05-20T18:56:11.964Z,12.45
2019-05-20T18:58:40.429Z,12.39
2019-05-20T19:01:08.938Z,12.32
2019-05-20T19:03:37.455Z,12.19
2019-05-20T19:06:05.967Z,12.38
2019-05-20T19:08:34.469Z,12.15
2019-05-20T19:11:03.072Z,12.21
2019-05-20T19:13:31.568Z,12.17
2019-05-20T19:16:00.153Z,12.32
2019-05-20T19:18:30.706Z,12.32
2019-05-20T19:20:59.226Z,12.25
2019-05-20T19:23:27.673Z,12.02
2019-05-20T19:25:56.193Z,11.92
2019-05-20T19:28:24.691Z,11.82
2019-05-20T19:30:53.231Z,11.86
2019-05-20T19:33:21.760Z,11.97
2019-05-20T19:35:50.318Z,12.03
2019-05-20T19:38:19.011Z,11.95
2019-05-20T19:40:47.475Z,11.79
2019-05-20T19:43:15.986Z,11.79
2019-05-20T19:45:44.557Z,11.69
2019-05-20T19:48:13.158Z,11.85
2019-05-20T19:50:41.685Z,11.76
2019-05-20T19:53:10.207Z,11.77
2019-05-20T19:55:38.690Z,11.60
2019-05-20T19:58:07.298Z,11.56
2019-05-20T20:00:35.758Z,11.62
2019-05-20T20:03:04.279Z,11.54
2019-05-20T20:05:32.765Z,11.56
2019-05-20T20:08:01.310Z,11.57
2019-05-20T20:10:29.793Z,11.66
2019-05-20T20:12:58.231Z,11.51
2019-05-20T20:15:26.811Z,11.54
2019-05-20T20:17:55.237Z,11.53
2019-05-20T20:20:23.709Z,11.48
2019-05-20T20:22:52.150Z,11.52
2019-05-20T20:25:20.623Z,11.73
2019-05-20T20:27:49.199Z,11.70
2019-05-20T20:30:17.787Z,11.56
2019-05-20T20:32:46.266Z,11.51
2019-05-20T20:35:14.893Z,11.39
2019-05-20T20:37:43.458Z,11.62
2019-05-20T20:40:12.233Z,11.60
2019-05-20T20:42:40.815Z,11.64
2019-05-20T20:45:09.558Z,11.48
2019-05-20T20:47:41.651Z,11.70
2019-05-20T20:50:08.591Z,11.53
2019-05-20T20:52:37.066Z,11.37
2019-05-20T20:55:06.836Z,11.37
2019-05-20T20:57:35.545Z,11.44
2019-05-20T21:00:06.613Z,11.42
2019-05-20T21:02:35.052Z,11.38
2019-05-20T21:05:04.255Z,11.29
2019-05-20T21:07:33.057Z,11.24
2019-05-20T21:10:01.529Z,11.26
2019-05-20T21:12:30.022Z,11.24
2019-05-20T21:14:58.521Z,11.18
2019-05-20T21:17:27.029Z,11.20
2019-05-20T21:19:55.521Z,11.20
2019-05-20T21:22:23.998Z,11.20
2019-05-20T21:24:52.465Z,11.28
2019-05-20T21:27:20.970Z,11.11
2019-05-20T21:29:49.425Z,11.20
2019-05-20T21:32:17.863Z,11.10
2019-05-20T21:34:46.349Z,11.24
2019-05-20T21:37:14.842Z,11.12
2019-05-20T21:39:43.276Z,11.08
2019-05-20T21:42:11.721Z,11.10
2019-05-20T21:44:40.168Z,10.99
2019-05-20T21:47:11.414Z,10.88
2019-05-20T21:49:39.904Z,10.97
2019-05-20T21:52:08.356Z,11.02
2019-05-20T21:54:36.823Z,11.02
2019-05-20T21:57:05.351Z,10.96
2019-05-20T21:59:33.878Z,10.98
2019-05-20T22:02:02.379Z,11.05
2019-05-20T22:04:30.920Z,10.96
2019-05-20T22:06:59.459Z,10.99
2019-05-20T22:09:27.964Z,10.90
2019-05-20T22:11:56.398Z,10.91
2019-05-20T22:14:24.990Z,10.96
2019-05-20T22:16:53.527Z,10.97
2019-05-20T22:19:22.090Z,10.88
2019-05-20T22:22:08.546Z,10.86
2019-05-20T22:24:36.999Z,10.68
2019-05-20T22:27:05.442Z,10.72
2019-05-20T22:29:33.982Z,10.70
2019-05-20T22:32:02.454Z,10.74
2019-05-20T22:34:31.109Z,10.81
2019-05-20T22:36:59.538Z,10.68
2019-05-20T22:39:28.003Z,10.82
2019-05-20T22:41:56.440Z,10.67
2019-05-20T22:44:24.872Z,10.64
2019-05-20T22:46:53.339Z,10.53
2019-05-20T22:49:21.778Z,10.58
2019-05-20T22:51:50.255Z,10.57
2019-05-20T22:54:18.762Z,10.70
2019-05-20T22:56:47.294Z,10.70
2019-05-20T22:59:15.799Z,10.63
2019-05-20T23:01:44.230Z,10.62
2019-05-20T23:04:12.719Z,10.46
2019-05-20T23:06:41.242Z,10.46
2019-05-20T23:09:10.980Z,10.50
2019-05-20T23:11:39.596Z,10.42
2019-05-20T23:14:08.042Z,10.47
2019-05-20T23:16:36.549Z,10.44
2019-05-20T23:19:05.092Z,10.42
2019-05-20T23:21:33.605Z,10.49
2019-05-20T23:24:02.132Z,10.43
2019-05-20T23:26:30.689Z,10.50
2019-05-20T23:28:59.194Z,10.43
2019-05-20T23:31:27.622Z,10.36
2019-05-20T23:34:10.356Z,10.37
2019-05-20T23:36:26.230Z,10.38
2019-05-20T23:38:55.080Z,10.43
2019-05-20T23:41:23.530Z,10.32
2019-05-20T23:43:51.973Z,10.36
2019-05-20T23:46:20.452Z,10.47
2019-05-20T23:48:48.953Z,10.32
2019-05-20T23:51:17.418Z,10.33
2019-05-20T23:53:47.457Z,10.35
2019-05-20T23:56:16.030Z,10.40
2019-05-20T23:58:44.468Z,10.43
